Time;durP1;ratioP1;P1;durP2;ratioP2;P2;SDS_P1;SDS_P2;PMS_P1;PMS_P2;Temp;Humidity;BMP_temperature;BMP_pressure;BME280_temperature;BME280_humidity;BME280_pressure;Samples;Min_cycle;Max_cycle;Signal;HPM_P1;HPM_P2
2023/05/22 00:00:44;;;;;;;1.90;1.00;;;15.20;99.90;;;;;;4859584;29;20272;-96
2023/05/22 00:03:15;;;;;;;2.30;0.90;;;15.30;99.90;;;;;;4861211;29;20231;-96
2023/05/22 00:05:47;;;;;;;1.67;1.10;;;15.30;99.90;;;;;;4872224;29;20230;-96
2023/05/22 00:08:19;;;;;;;5.17;1.40;;;15.30;99.90;;;;;;4875317;29;20280;-96
2023/05/22 00:10:50;;;;;;;2.57;1.23;;;15.10;99.90;;;;;;4877763;29;20211;-96
2023/05/22 00:13:25;;;;;;;3.17;1.13;;;14.80;99.90;;;;;;4879223;29;20215;-96
2023/05/22 00:15:57;;;;;;;4.83;1.20;;;14.70;99.90;;;;;;4866201;29;20267;-96
2023/05/22 00:18:29;;;;;;;1.77;1.10;;;14.80;99.90;;;;;;4855043;29;20288;-96
2023/05/22 00:20:59;;;;;;;2.57;0.90;;;14.90;99.90;;;;;;4854042;29;20216;-96
2023/05/22 00:23:30;;;;;;;2.03;1.10;;;14.90;99.90;;;;;;4861022;29;20271;-94
2023/05/22 00:26:02;;;;;;;2.77;1.20;;;14.90;99.90;;;;;;4868548;29;20227;-95
2023/05/22 00:28:36;;;;;;;5.80;1.10;;;15.00;99.90;;;;;;4862540;29;20267;-96
2023/05/22 00:31:06;;;;;;;1.23;1.00;;;14.80;99.90;;;;;;4857320;29;20734;-96
2023/05/22 00:33:38;;;;;;;1.83;0.90;;;14.60;99.90;;;;;;4856058;29;20212;-96
2023/05/22 00:36:10;;;;;;;2.10;1.30;;;14.50;99.90;;;;;;4857680;29;20683;-96
2023/05/22 00:38:41;;;;;;;1.97;1.00;;;14.50;99.90;;;;;;4863723;29;20559;-96
2023/05/22 00:41:12;;;;;;;3.53;0.97;;;14.60;99.90;;;;;;4859634;29;20688;-96
2023/05/22 00:43:46;;;;;;;5.80;1.40;;;14.60;99.90;;;;;;4854930;29;20226;-96
2023/05/22 00:46:21;;;;;;;1.90;1.30;;;14.50;99.90;;;;;;4864532;29;20258;-95
2023/05/22 00:48:53;;;;;;;1.40;1.13;;;14.40;99.90;;;;;;4860830;29;20199;-95
2023/05/22 00:51:26;;;;;;;1.27;1.03;;;14.40;99.90;;;;;;4874099;29;20275;-94
2023/05/22 00:53:57;;;;;;;6.13;1.37;;;14.50;99.90;;;;;;4865876;29;20206;-96
2023/05/22 00:56:30;;;;;;;3.00;1.50;;;14.40;99.90;;;;;;4855329;29;20283;-96
2023/05/22 00:59:04;;;;;;;2.80;1.33;;;14.50;99.90;;;;;;4851898;29;20268;-96
2023/05/22 01:01:35;;;;;;;2.53;1.27;;;14.40;99.90;;;;;;4854015;29;20242;-96
2023/05/22 01:04:08;;;;;;;5.10;1.40;;;14.40;99.90;;;;;;4840675;29;20247;-96
2023/05/22 01:06:40;;;;;;;5.90;1.60;;;14.30;99.90;;;;;;4851346;29;20239;-96
2023/05/22 01:09:12;;;;;;;3.87;1.67;;;14.20;99.90;;;;;;4850992;29;20212;-95
2023/05/22 01:11:52;;;;;;;2.50;1.70;;;14.30;99.90;;;;;;4850787;29;20221;-96
2023/05/22 01:14:34;;;;;;;4.60;1.50;;;14.20;99.90;;;;;;4852567;29;20316;-96
2023/05/22 01:17:21;;;;;;;4.63;1.90;;;14.20;99.90;;;;;;4865071;29;20206;-96
2023/05/22 01:20:06;;;;;;;4.13;1.90;;;14.10;99.90;;;;;;4851052;29;20260;-96
2023/05/22 01:23:12;;;;;;;5.37;3.23;;;14.10;99.90;;;;;;4511086;29;10000318;-96
2023/05/22 01:29:29;;;;;;;7.47;4.10;;;13.80;99.90;;;;;;4844851;29;20272;-96
2023/05/22 01:32:05;;;;;;;9.60;4.13;;;13.60;99.90;;;;;;4841685;29;20203;-94
2023/05/22 01:34:40;;;;;;;7.80;3.87;;;13.40;99.90;;;;;;4843408;29;20252;-93
2023/05/22 01:37:13;;;;;;;8.37;4.23;;;13.10;99.90;;;;;;4843681;29;20215;-96
2023/05/22 01:39:46;;;;;;;6.43;4.00;;;13.00;99.90;;;;;;4843377;29;20224;-93
2023/05/22 01:42:19;;;;;;;10.13;4.37;;;12.90;99.90;;;;;;4849449;29;20223;-92
2023/05/22 01:44:51;;;;;;;10.67;4.90;;;12.80;99.90;;;;;;4851253;29;20247;-92
2023/05/22 01:47:24;;;;;;;9.40;4.43;;;12.70;99.90;;;;;;4850951;29;20243;-96
2023/05/22 01:49:56;;;;;;;10.33;4.47;;;12.60;99.90;;;;;;4859333;29;20570;-94
2023/05/22 01:52:35;;;;;;;8.87;4.67;;;12.60;99.90;;;;;;4857909;29;21031;-94
2023/05/22 01:55:12;;;;;;;11.70;5.10;;;12.50;99.90;;;;;;4849850;29;20207;-92
2023/05/22 01:57:50;;;;;;;12.10;4.63;;;12.40;99.90;;;;;;4854136;29;20219;-92
2023/05/22 02:00:23;;;;;;;13.17;4.80;;;12.40;99.90;;;;;;4848064;29;20215;-94
2023/05/22 02:03:07;;;;;;;14.13;5.20;;;12.30;99.90;;;;;;4845351;29;20249;-91
2023/05/22 02:05:40;;;;;;;12.87;5.43;;;12.30;99.90;;;;;;4836430;29;20267;-94
2023/05/22 02:08:13;;;;;;;10.13;4.47;;;12.30;99.90;;;;;;4843308;29;20720;-94
2023/05/22 02:10:46;;;;;;;17.13;5.77;;;12.30;99.90;;;;;;4847581;29;20215;-93
2023/05/22 02:13:18;;;;;;;17.63;5.53;;;12.30;99.90;;;;;;4847851;29;20235;-93
2023/05/22 02:15:49;;;;;;;13.77;5.83;;;12.20;99.90;;;;;;4842796;29;20226;-92
2023/05/22 02:18:29;;;;;;;13.43;6.13;;;12.20;99.90;;;;;;4845354;29;20338;-93
2023/05/22 02:21:01;;;;;;;20.90;6.37;;;12.10;99.90;;;;;;4850159;29;20206;-94
2023/05/22 02:23:33;;;;;;;18.97;6.10;;;12.10;99.90;;;;;;4845709;29;20263;-92
2023/05/22 02:26:05;;;;;;;14.57;5.33;;;11.90;99.90;;;;;;4844571;29;20577;-95
2023/05/22 02:28:36;;;;;;;15.10;5.93;;;11.90;99.90;;;;;;4844585;29;20216;-92
2023/05/22 02:31:08;;;;;;;20.20;6.37;;;11.90;99.90;;;;;;4847209;29;20222;-89
2023/05/22 02:33:42;;;;;;;21.67;6.70;;;11.90;99.90;;;;;;4847071;29;20219;-93
2023/05/22 02:36:22;;;;;;;16.67;7.10;;;11.90;99.90;;;;;;4959427;23;20249;-89
2023/05/22 02:38:54;;;;;;;12.23;5.57;;;11.80;99.90;;;;;;4900976;29;20220;-92
2023/05/22 02:41:26;;;;;;;19.57;5.97;;;11.80;99.90;;;;;;4896042;29;20601;-92
2023/05/22 02:43:57;;;;;;;16.93;7.43;;;11.80;99.90;;;;;;4901471;29;20237;-91
2023/05/22 02:46:28;;;;;;;17.77;6.40;;;11.80;99.90;;;;;;4896572;29;20214;-93
2023/05/22 02:49:03;;;;;;;20.13;6.83;;;11.80;99.90;;;;;;4908208;29;20205;-93
2023/05/22 02:51:34;;;;;;;16.87;5.93;;;11.80;99.90;;;;;;4912454;29;20198;-93
2023/05/22 02:54:07;;;;;;;16.93;6.60;;;11.70;99.90;;;;;;4917719;29;20194;-92
2023/05/22 02:56:39;;;;;;;15.70;6.63;;;11.70;99.90;;;;;;4913453;29;20258;-95
2023/05/22 02:59:12;;;;;;;22.43;7.40;;;11.70;99.90;;;;;;4911515;29;20210;-93
2023/05/22 03:01:47;;;;;;;15.77;6.57;;;11.70;99.90;;;;;;4896989;29;20224;-94
2023/05/22 03:04:21;;;;;;;15.73;6.37;;;11.80;99.90;;;;;;4901368;29;20209;-91
2023/05/22 03:06:54;;;;;;;17.73;6.87;;;11.80;99.90;;;;;;4895798;29;20324;-92
2023/05/22 03:09:27;;;;;;;16.50;6.03;;;11.70;99.90;;;;;;4904991;29;20210;-92
2023/05/22 03:11:59;;;;;;;15.07;7.00;;;11.70;99.90;;;;;;4900361;29;20245;-94
2023/05/22 03:14:31;;;;;;;19.23;6.97;;;11.80;99.90;;;;;;4904460;29;20212;-96
2023/05/22 03:17:04;;;;;;;15.40;6.30;;;11.80;99.90;;;;;;4910210;29;20279;-95
2023/05/22 03:19:39;;;;;;;20.87;7.90;;;11.70;99.90;;;;;;4907122;29;20209;-94
2023/05/22 03:22:12;;;;;;;16.07;6.60;;;11.70;99.90;;;;;;4915421;29;20202;-96
2023/05/22 03:24:44;;;;;;;17.40;6.67;;;11.70;99.90;;;;;;4915156;29;20277;-95
2023/05/22 03:27:20;;;;;;;16.63;6.10;;;11.70;99.90;;;;;;4908096;29;20242;-95
2023/05/22 03:32:38;;;;;;;13.87;6.37;;;11.70;99.90;;;;;;4943835;23;20261;-96
2023/05/22 03:35:18;;;;;;;18.83;7.03;;;11.60;99.90;;;;;;5126256;23;20233;-96
2023/05/22 03:37:50;;;;;;;13.60;6.60;;;11.60;99.90;;;;;;5144863;23;20486;-96
2023/05/22 03:48:30;;;;;;;12.90;6.50;;;11.60;99.90;;;;;;5352398;23;20325;-96
2023/05/22 03:51:08;;;;;;;20.20;6.70;;;11.70;99.90;;;;;;4907628;29;20249;-94
2023/05/22 03:53:40;;;;;;;13.57;6.63;;;11.70;99.90;;;;;;4886892;29;20217;-95
2023/05/22 03:56:13;;;;;;;17.77;7.13;;;11.70;99.90;;;;;;4891468;29;20239;-94
2023/05/22 03:58:45;;;;;;;15.03;6.80;;;11.60;99.90;;;;;;4905217;29;20611;-95
2023/05/22 04:01:17;;;;;;;12.33;5.43;;;11.60;99.90;;;;;;4905274;29;20217;-94
2023/05/22 04:03:50;;;;;;;11.37;5.57;;;11.50;99.90;;;;;;4895325;29;20217;-95
2023/05/22 04:06:24;;;;;;;9.73;4.90;;;11.40;99.90;;;;;;4885728;29;20253;-95
2023/05/22 04:08:56;;;;;;;9.77;5.20;;;11.30;99.90;;;;;;4884800;29;20265;-93
2023/05/22 04:11:29;;;;;;;9.60;5.07;;;11.30;99.90;;;;;;4899261;29;20202;-94
2023/05/22 04:14:05;;;;;;;9.10;4.93;;;11.20;99.90;;;;;;4905781;29;20217;-96
2023/05/22 04:16:37;;;;;;;9.93;5.20;;;11.10;99.90;;;;;;4910677;29;20209;-94
2023/05/22 04:19:09;;;;;;;9.80;5.43;;;11.20;99.90;;;;;;4888525;29;20699;-96
2023/05/22 04:21:44;;;;;;;10.03;5.37;;;11.10;99.90;;;;;;4894345;29;20273;-94
2023/05/22 04:24:16;;;;;;;9.73;4.63;;;11.10;99.90;;;;;;4909862;29;20221;-95
2023/05/22 04:26:50;;;;;;;9.60;5.07;;;11.20;99.90;;;;;;4911494;29;20214;-96
2023/05/22 04:29:23;;;;;;;12.83;5.47;;;11.20;99.90;;;;;;4910143;29;20304;-94
2023/05/22 04:31:55;;;;;;;11.00;4.90;;;11.10;99.90;;;;;;4908870;29;20209;-96
2023/05/22 04:34:28;;;;;;;7.60;4.97;;;11.10;99.90;;;;;;4891782;29;20233;-96
2023/05/22 04:37:05;;;;;;;12.47;5.83;;;11.10;99.90;;;;;;4885341;29;20209;-96
2023/05/22 04:39:37;;;;;;;10.80;5.80;;;11.10;99.90;;;;;;4902244;29;20237;-96
2023/05/22 04:42:08;;;;;;;11.70;5.27;;;11.10;99.90;;;;;;4908418;29;20240;-96
2023/05/22 04:44:40;;;;;;;14.93;5.57;;;11.10;99.90;;;;;;4910508;29;20284;-95
2023/05/22 04:47:13;;;;;;;13.77;5.70;;;11.10;99.90;;;;;;4916699;29;20226;-96
2023/05/22 04:49:46;;;;;;;10.17;5.57;;;11.00;99.90;;;;;;4916332;29;20248;-96
2023/05/22 04:52:20;;;;;;;12.30;5.37;;;11.00;99.90;;;;;;4902808;29;20208;-96
2023/05/22 04:54:54;;;;;;;13.87;5.47;;;11.00;99.90;;;;;;4904117;29;20384;-95
2023/05/22 04:57:28;;;;;;;14.80;6.13;;;10.90;99.90;;;;;;4900001;29;20205;-95
2023/05/22 05:00:04;;;;;;;15.57;5.67;;;11.00;99.90;;;;;;4905907;29;20220;-94
2023/05/22 05:02:35;;;;;;;17.10;5.83;;;11.00;99.90;;;;;;4915064;29;20300;-93
2023/05/22 05:05:07;;;;;;;14.67;5.50;;;10.90;99.90;;;;;;4904672;29;20217;-90
2023/05/22 05:07:45;;;;;;;12.63;5.67;;;10.90;99.90;;;;;;4893161;29;20224;-92
2023/05/22 05:10:19;;;;;;;13.83;5.80;;;11.00;99.90;;;;;;4900083;29;20296;-90
2023/05/22 05:12:51;;;;;;;13.17;5.90;;;11.00;99.90;;;;;;4905012;29;20649;-94
2023/05/22 05:15:23;;;;;;;11.47;5.07;;;11.00;99.90;;;;;;4899171;29;20623;-94
2023/05/22 05:17:57;;;;;;;11.80;5.37;;;11.00;99.90;;;;;;4896498;29;20214;-94
2023/05/22 05:20:29;;;;;;;10.90;4.50;;;11.00;99.90;;;;;;4902975;29;20213;-95
2023/05/22 05:23:04;;;;;;;11.37;5.60;;;11.00;99.90;;;;;;4899086;29;20237;-95
2023/05/22 05:25:37;;;;;;;13.33;5.20;;;11.00;99.90;;;;;;4911270;29;20209;-96
2023/05/22 05:28:10;;;;;;;14.00;5.33;;;11.00;99.90;;;;;;4913852;29;20221;-96
2023/05/22 05:52:19;;;;;;;12.20;4.90;;;11.00;99.90;;;;;;4887449;29;20233;-96
2023/05/22 05:54:52;;;;;;;8.93;5.57;;;11.00;99.90;;;;;;4887738;29;20222;-96
2023/05/22 05:57:25;;;;;;;9.10;5.47;;;11.00;99.90;;;;;;4878300;29;20214;-96
2023/05/22 05:59:57;;;;;;;10.10;5.27;;;11.00;99.90;;;;;;4874758;29;20308;-96
2023/05/22 06:02:30;;;;;;;10.53;5.37;;;11.00;99.90;;;;;;4878036;29;20289;-94
2023/05/22 06:05:04;;;;;;;11.20;5.23;;;11.00;99.90;;;;;;4875347;29;20724;-96
2023/05/22 06:07:38;;;;;;;12.20;6.00;;;11.00;99.90;;;;;;4880152;29;20552;-95
2023/05/22 06:10:12;;;;;;;12.93;5.67;;;11.00;99.90;;;;;;4880226;29;20241;-95
2023/05/22 06:12:44;;;;;;;14.27;5.50;;;11.00;99.90;;;;;;4880603;29;20597;-94
2023/05/22 06:15:17;;;;;;;12.30;5.90;;;11.00;99.90;;;;;;4881150;29;20567;-96
2023/05/22 06:17:49;;;;;;;10.07;5.10;;;10.90;99.90;;;;;;4884383;29;20680;-93
2023/05/22 06:20:22;;;;;;;8.97;4.93;;;10.90;99.90;;;;;;4882876;29;20218;-94
2023/05/22 06:22:55;;;;;;;9.60;5.43;;;10.90;99.90;;;;;;4881438;29;20257;-96
2023/05/22 06:25:28;;;;;;;10.10;5.10;;;10.90;99.90;;;;;;4865958;29;20215;-95
2023/05/22 06:28:00;;;;;;;14.13;5.70;;;10.90;99.90;;;;;;4876324;29;20918;-93
2023/05/22 06:30:32;;;;;;;9.03;5.23;;;10.90;99.90;;;;;;4885519;29;20207;-96
2023/05/22 06:33:09;;;;;;;14.13;5.10;;;10.90;99.90;;;;;;4887367;29;20257;-94
2023/05/22 06:35:42;;;;;;;10.20;5.70;;;10.70;99.90;;;;;;4883091;29;20769;-87
2023/05/22 06:38:16;;;;;;;17.43;6.23;;;10.50;99.90;;;;;;4871798;29;20801;-95
2023/05/22 06:40:48;;;;;;;11.13;5.40;;;10.30;99.90;;;;;;4875717;29;20237;-94
2023/05/22 06:43:20;;;;;;;11.27;5.60;;;10.30;99.90;;;;;;4882851;29;20218;-94
2023/05/22 06:45:52;;;;;;;12.97;5.93;;;10.40;99.90;;;;;;4882659;29;20574;-94
2023/05/22 06:48:25;;;;;;;13.83;5.90;;;10.40;99.90;;;;;;4881201;29;20270;-95
2023/05/22 06:50:56;;;;;;;9.47;5.10;;;10.60;99.90;;;;;;4883598;29;20593;-95
2023/05/22 06:53:30;;;;;;;10.40;6.17;;;10.50;99.90;;;;;;4879411;29;20210;-93
2023/05/22 06:56:01;;;;;;;11.30;5.83;;;10.60;99.90;;;;;;4877814;29;20221;-93
2023/05/22 06:58:33;;;;;;;14.73;5.57;;;10.60;99.90;;;;;;4881480;29;20593;-94
2023/05/22 07:01:06;;;;;;;13.70;5.17;;;10.70;99.90;;;;;;4877562;29;20683;-95
2023/05/22 07:03:38;;;;;;;8.93;4.90;;;10.70;99.90;;;;;;4864559;29;20226;-96
2023/05/22 07:06:10;;;;;;;17.53;6.10;;;10.80;99.90;;;;;;4884277;29;20218;-94
2023/05/22 07:08:44;;;;;;;9.50;4.83;;;10.80;99.90;;;;;;4901342;29;20241;-93
2023/05/22 07:11:16;;;;;;;8.40;5.03;;;10.80;99.90;;;;;;4896071;29;20202;-96
2023/05/22 07:13:47;;;;;;;12.10;5.10;;;10.80;99.90;;;;;;4887220;29;20661;-94
2023/05/22 07:16:18;;;;;;;7.83;4.53;;;10.80;99.90;;;;;;4883203;29;20668;-94
2023/05/22 07:18:51;;;;;;;13.93;4.90;;;10.90;99.90;;;;;;4881698;29;20222;-96
2023/05/22 07:21:23;;;;;;;8.97;4.63;;;10.90;99.90;;;;;;4882910;29;20222;-95
2023/05/22 07:23:57;;;;;;;11.20;4.83;;;10.90;99.90;;;;;;4881980;29;20254;-95
2023/05/22 07:26:28;;;;;;;10.70;4.97;;;10.90;99.90;;;;;;4881602;29;20215;-94
2023/05/22 07:29:00;;;;;;;11.97;5.07;;;10.90;99.90;;;;;;4881298;29;20242;-95
2023/05/22 07:31:33;;;;;;;12.03;5.30;;;10.90;99.90;;;;;;4881724;29;20650;-94
2023/05/22 07:34:04;;;;;;;12.97;4.70;;;10.90;99.90;;;;;;4879088;29;20215;-95
2023/05/22 07:36:36;;;;;;;9.90;4.37;;;11.00;99.90;;;;;;4881094;29;20220;-95
2023/05/22 07:39:10;;;;;;;11.47;5.20;;;11.00;99.90;;;;;;4880858;29;20595;-96
2023/05/22 07:41:42;;;;;;;15.93;5.33;;;11.00;99.90;;;;;;4873350;29;20215;-94
2023/05/22 07:44:13;;;;;;;8.40;4.70;;;11.00;99.90;;;;;;4867624;29;20214;-95
2023/05/22 07:46:45;;;;;;;9.63;5.00;;;11.00;99.90;;;;;;4878350;29;20224;-96
2023/05/22 07:49:19;;;;;;;10.33;5.00;;;10.90;99.90;;;;;;4880941;29;20282;-95
2023/05/22 07:51:51;;;;;;;10.20;4.60;;;10.90;99.90;;;;;;4880861;29;20218;-96
2023/05/22 07:54:25;;;;;;;15.40;5.60;;;10.90;99.90;;;;;;4882064;29;20225;-95
2023/05/22 07:56:57;;;;;;;14.13;5.43;;;10.90;99.90;;;;;;4881620;29;20568;-95
2023/05/22 07:59:28;;;;;;;14.10;4.87;;;10.90;99.90;;;;;;4866679;29;20207;-95
2023/05/22 08:01:59;;;;;;;8.07;4.70;;;10.80;99.90;;;;;;4878673;29;20354;-95
2023/05/22 08:04:31;;;;;;;8.70;4.87;;;10.80;99.90;;;;;;4880441;29;20211;-95
2023/05/22 08:07:04;;;;;;;9.00;4.63;;;10.80;99.90;;;;;;4880840;29;20238;-94
2023/05/22 08:09:37;;;;;;;7.47;4.63;;;10.80;99.90;;;;;;4880046;29;20237;-94
2023/05/22 08:12:09;;;;;;;9.33;5.03;;;10.80;99.90;;;;;;4881020;29;20249;-94
2023/05/22 08:14:41;;;;;;;10.73;5.30;;;10.80;99.90;;;;;;4881198;29;20218;-94
2023/05/22 08:17:13;;;;;;;10.70;5.30;;;10.70;99.90;;;;;;4879824;29;20210;-95
2023/05/22 08:19:44;;;;;;;7.27;4.40;;;10.70;99.90;;;;;;4880100;29;20225;-95
2023/05/22 08:22:16;;;;;;;8.07;4.20;;;10.70;99.90;;;;;;4878982;29;20221;-95
2023/05/22 08:24:50;;;;;;;11.40;5.10;;;10.70;99.90;;;;;;4881069;29;20365;-94
2023/05/22 08:27:21;;;;;;;10.27;4.50;;;10.80;99.90;;;;;;4880843;29;20225;-94
2023/05/22 08:29:52;;;;;;;9.63;4.40;;;10.80;99.90;;;;;;4879920;29;20241;-94
2023/05/22 08:32:24;;;;;;;14.03;4.93;;;10.80;99.90;;;;;;4875088;29;20382;-95
2023/05/22 08:34:58;;;;;;;8.20;4.73;;;10.80;99.90;;;;;;4881171;29;20279;-94
2023/05/22 08:37:30;;;;;;;7.50;4.47;;;10.70;99.90;;;;;;4880507;29;20214;-94
2023/05/22 08:40:04;;;;;;;5.57;3.77;;;10.80;99.90;;;;;;4878530;29;20221;-95
2023/05/22 08:42:36;;;;;;;7.57;4.03;;;10.80;99.90;;;;;;4880211;29;20298;-96
2023/05/22 08:45:09;;;;;;;8.37;4.10;;;10.80;99.90;;;;;;4880560;29;20214;-94
2023/05/22 08:47:42;;;;;;;10.00;4.13;;;10.80;99.90;;;;;;4879282;29;20225;-95
2023/05/22 08:50:15;;;;;;;10.37;4.43;;;10.90;99.90;;;;;;4880743;29;20253;-95
2023/05/22 08:52:52;;;;;;;10.03;4.50;;;10.80;99.90;;;;;;4880938;29;20227;-96
2023/05/22 08:55:26;;;;;;;5.87;3.97;;;10.80;99.90;;;;;;4881204;29;20205;-94
2023/05/22 08:57:58;;;;;;;10.20;4.40;;;10.80;99.90;;;;;;4880099;29;20262;-95
2023/05/22 09:00:30;;;;;;;8.20;3.70;;;10.80;99.90;;;;;;4878985;29;20214;-95
2023/05/22 09:03:01;;;;;;;9.37;3.87;;;10.80;99.90;;;;;;4880808;29;20221;-94
2023/05/22 09:05:33;;;;;;;11.47;4.57;;;10.80;99.90;;;;;;4880212;29;20210;-95
2023/05/22 09:08:06;;;;;;;8.27;4.30;;;10.80;99.90;;;;;;4870160;29;20203;-95
2023/05/22 09:10:53;;;;;;;7.93;4.30;;;10.70;99.90;;;;;;4883221;29;20234;-94
2023/05/22 09:13:29;;;;;;;6.77;4.13;;;10.70;99.90;;;;;;4896215;29;20234;-96
2023/05/22 09:16:08;;;;;;;9.30;4.10;;;10.70;99.90;;;;;;4900620;29;20197;-95
2023/05/22 09:18:40;;;;;;;8.63;4.07;;;10.60;99.90;;;;;;4890321;29;20345;-95
2023/05/22 09:21:13;;;;;;;9.80;4.10;;;10.60;99.90;;;;;;4881870;29;20230;-93
2023/05/22 09:24:02;;;;;;;7.97;4.17;;;10.70;99.90;;;;;;4886212;29;20659;-95
2023/05/22 09:26:36;;;;;;;8.70;4.07;;;10.80;99.90;;;;;;4894740;29;20225;-94
2023/05/22 09:29:08;;;;;;;9.03;3.97;;;10.70;99.90;;;;;;4880482;29;20610;-93
2023/05/22 09:31:43;;;;;;;7.27;3.90;;;10.80;99.90;;;;;;4870470;29;20315;-93
2023/05/22 09:34:16;;;;;;;7.57;4.10;;;10.70;99.90;;;;;;4881058;29;20270;-94
2023/05/22 09:36:48;;;;;;;7.93;4.00;;;10.60;99.90;;;;;;4876371;29;20226;-94
2023/05/22 09:39:20;;;;;;;10.73;4.10;;;10.70;99.90;;;;;;4872059;29;20229;-94
2023/05/22 09:41:53;;;;;;;11.07;4.07;;;10.70;99.90;;;;;;4871898;29;20211;-94
2023/05/22 09:44:26;;;;;;;7.33;3.83;;;10.80;99.90;;;;;;4869830;29;20206;-94
2023/05/22 09:46:58;;;;;;;7.60;3.80;;;10.90;99.90;;;;;;4872895;29;20215;-95
2023/05/22 09:49:30;;;;;;;9.23;4.13;;;10.90;99.90;;;;;;4879423;29;20218;-95
2023/05/22 09:52:02;;;;;;;5.87;3.23;;;11.00;99.90;;;;;;4883484;29;20257;-94
2023/05/22 09:54:36;;;;;;;7.67;3.73;;;10.90;99.90;;;;;;4884964;29;20223;-94
2023/05/22 09:57:14;;;;;;;8.27;3.80;;;10.90;99.90;;;;;;4891460;29;20210;-94
2023/05/22 09:59:52;;;;;;;8.97;3.83;;;10.90;99.90;;;;;;4883656;29;20218;-94
2023/05/22 10:02:25;;;;;;;8.43;3.57;;;10.90;99.90;;;;;;4875004;29;20225;-95
2023/05/22 10:04:58;;;;;;;6.23;3.27;;;10.90;99.90;;;;;;4877007;29;20210;-95
2023/05/22 10:07:37;;;;;;;6.33;3.50;;;10.90;99.90;;;;;;4883832;29;20381;-94
2023/05/22 10:10:11;;;;;;;7.53;3.10;;;10.90;99.90;;;;;;4878130;29;20254;-95
2023/05/22 10:12:51;;;;;;;7.40;3.77;;;10.90;99.90;;;;;;4883392;29;20293;-95
2023/05/22 10:15:24;;;;;;;5.80;3.07;;;10.90;99.90;;;;;;4883341;29;20983;-94
2023/05/22 10:17:56;;;;;;;6.00;4.00;;;10.90;99.90;;;;;;4870408;29;20211;-95
2023/05/22 10:20:29;;;;;;;10.00;4.00;;;10.80;99.90;;;;;;4867905;29;20211;-95
2023/05/22 10:23:03;;;;;;;8.87;3.53;;;10.70;99.90;;;;;;4871689;29;20254;-94
2023/05/22 10:25:38;;;;;;;6.50;4.03;;;10.70;99.90;;;;;;4881242;29;20296;-93
2023/05/22 10:28:15;;;;;;;6.90;4.00;;;10.70;99.90;;;;;;4878872;29;20224;-94
2023/05/22 10:30:52;;;;;;;6.87;3.53;;;10.80;99.90;;;;;;4882300;29;20310;-95
2023/05/22 10:33:25;;;;;;;5.70;3.70;;;10.70;99.90;;;;;;4883110;29;20213;-94
2023/05/22 10:36:00;;;;;;;7.20;4.13;;;10.80;99.90;;;;;;4884987;29;20230;-94
2023/05/22 10:38:48;;;;;;;6.73;4.03;;;10.80;99.90;;;;;;4879577;29;20211;-94
2023/05/22 10:41:20;;;;;;;7.37;3.93;;;10.80;99.90;;;;;;4864512;29;20211;-93
2023/05/22 10:43:57;;;;;;;6.33;3.80;;;10.90;99.90;;;;;;4863995;29;20247;-93
2023/05/22 10:46:34;;;;;;;10.60;4.60;;;10.80;99.90;;;;;;4863919;29;20219;-94
2023/05/22 10:49:06;;;;;;;10.77;4.70;;;10.80;99.90;;;;;;4863320;29;20221;-95
2023/05/22 10:51:37;;;;;;;9.43;5.37;;;10.90;99.90;;;;;;4863461;29;20242;-95
2023/05/22 10:54:09;;;;;;;8.53;4.70;;;10.80;99.90;;;;;;4868999;29;20242;-96
2023/05/22 10:56:41;;;;;;;7.97;4.47;;;10.80;99.90;;;;;;4883618;29;20219;-95
2023/05/22 10:59:14;;;;;;;10.03;4.23;;;10.90;99.90;;;;;;4881659;29;20219;-95
2023/05/22 11:01:45;;;;;;;8.83;4.73;;;10.90;99.90;;;;;;4881583;29;20216;-94
2023/05/22 11:04:17;;;;;;;10.50;4.60;;;10.90;99.90;;;;;;4882964;29;20660;-95
2023/05/22 11:06:50;;;;;;;11.90;4.83;;;10.80;99.90;;;;;;4881744;29;20207;-94
2023/05/22 11:09:29;;;;;;;12.87;4.37;;;10.80;99.90;;;;;;4883393;29;20277;-94
2023/05/22 11:12:21;;;;;;;6.87;4.13;;;10.80;99.90;;;;;;4892454;29;20234;-96
2023/05/22 11:14:56;;;;;;;12.60;4.83;;;10.90;99.90;;;;;;4892378;29;20218;-95
2023/05/22 11:17:29;;;;;;;9.13;4.47;;;10.90;99.90;;;;;;4896621;29;20257;-95
2023/05/22 11:20:03;;;;;;;12.00;4.97;;;10.80;99.90;;;;;;4893363;29;20207;-95
2023/05/22 11:22:40;;;;;;;9.67;4.17;;;10.80;99.90;;;;;;4884827;29;20214;-94
2023/05/22 11:25:16;;;;;;;9.93;4.27;;;10.80;99.90;;;;;;4887281;29;20230;-94
2023/05/22 11:27:49;;;;;;;10.83;4.63;;;10.70;99.90;;;;;;4883977;29;20742;-94
2023/05/22 11:30:29;;;;;;;7.13;4.33;;;10.70;99.90;;;;;;4877262;29;20270;-96
2023/05/22 11:33:01;;;;;;;11.47;4.80;;;10.60;99.90;;;;;;4869216;29;20242;-94
2023/05/22 11:35:34;;;;;;;9.63;4.80;;;10.60;99.90;;;;;;4880860;29;20211;-95
2023/05/22 11:38:06;;;;;;;8.17;4.97;;;10.60;99.90;;;;;;4881564;29;20297;-95
2023/05/22 11:40:39;;;;;;;10.80;4.90;;;10.60;99.90;;;;;;4882528;29;20212;-93
2023/05/22 11:43:11;;;;;;;7.83;4.40;;;10.60;99.90;;;;;;4882974;29;20218;-95
2023/05/22 11:45:45;;;;;;;9.90;4.90;;;10.70;99.90;;;;;;4882621;29;20214;-94
2023/05/22 11:48:20;;;;;;;12.43;5.40;;;10.70;99.90;;;;;;4881465;29;20206;-94
2023/05/22 11:50:52;;;;;;;10.67;4.87;;;10.70;99.90;;;;;;4881730;29;20224;-95
2023/05/22 11:53:25;;;;;;;10.60;5.30;;;10.70;99.90;;;;;;4883182;29;20228;-93
2023/05/22 11:55:57;;;;;;;10.07;5.27;;;10.70;99.90;;;;;;4882358;29;20211;-95
2023/05/22 11:58:29;;;;;;;9.50;4.80;;;10.70;99.90;;;;;;4881223;29;20210;-95
2023/05/22 12:01:04;;;;;;;11.87;4.87;;;10.70;99.90;;;;;;4882093;29;20210;-94
2023/05/22 12:03:35;;;;;;;8.87;4.70;;;10.70;99.90;;;;;;4882141;29;20216;-93
2023/05/22 12:06:07;;;;;;;9.20;4.57;;;10.60;99.90;;;;;;4881855;29;20336;-94
2023/05/22 12:08:38;;;;;;;12.47;4.93;;;10.70;99.90;;;;;;4880963;29;20210;-93
2023/05/22 12:11:12;;;;;;;8.43;4.67;;;10.60;99.90;;;;;;4881479;29;20214;-95
2023/05/22 12:13:44;;;;;;;8.70;4.50;;;10.60;99.90;;;;;;4881491;29;20222;-96
2023/05/22 12:16:25;;;;;;;7.10;4.50;;;10.60;99.90;;;;;;4865539;29;20222;-96
2023/05/22 12:18:57;;;;;;;10.67;4.80;;;10.60;99.90;;;;;;4865568;29;20243;-96
2023/05/22 12:21:29;;;;;;;8.23;4.50;;;10.60;99.90;;;;;;4881468;29;20225;-95
2023/05/22 12:24:03;;;;;;;9.43;4.50;;;10.60;99.90;;;;;;4881261;29;20656;-95
2023/05/22 12:26:35;;;;;;;9.97;4.50;;;10.60;99.90;;;;;;4882890;29;20667;-96
2023/05/22 12:29:07;;;;;;;11.17;4.40;;;10.50;99.90;;;;;;4882071;29;20732;-94
2023/05/22 12:31:40;;;;;;;9.77;4.70;;;10.50;99.90;;;;;;4883101;29;20241;-94
2023/05/22 12:34:11;;;;;;;8.13;4.50;;;10.50;99.90;;;;;;4881344;29;20217;-93
2023/05/22 12:36:44;;;;;;;10.80;4.73;;;10.50;99.90;;;;;;4881539;29;20207;-94
2023/05/22 12:39:18;;;;;;;7.13;3.53;;;10.50;99.90;;;;;;4880987;29;20289;-95
2023/05/22 12:41:50;;;;;;;7.20;4.67;;;10.60;99.90;;;;;;4880769;29;20218;-95
2023/05/22 12:44:22;;;;;;;9.47;4.10;;;10.60;99.90;;;;;;4880680;29;20203;-95
2023/05/22 12:46:56;;;;;;;12.57;3.80;;;10.20;99.90;;;;;;4879873;29;20222;-95
2023/05/22 12:49:27;;;;;;;11.33;3.40;;;10.10;99.90;;;;;;4873990;29;20218;-94
2023/05/22 12:51:59;;;;;;;6.23;3.27;;;10.10;99.90;;;;;;4862292;29;20238;-94
2023/05/22 12:54:31;;;;;;;7.53;3.33;;;10.20;99.90;;;;;;4873864;29;20214;-95
2023/05/22 12:57:02;;;;;;;4.60;3.10;;;10.20;99.90;;;;;;4880979;29;20211;-95
2023/05/22 12:59:35;;;;;;;6.27;3.07;;;10.20;99.90;;;;;;4879174;29;20224;-95
2023/05/22 13:02:09;;;;;;;4.83;2.93;;;10.20;99.90;;;;;;4880727;29;20214;-94
2023/05/22 13:04:40;;;;;;;8.03;3.00;;;10.30;99.90;;;;;;4880073;29;20214;-95
2023/05/22 13:07:12;;;;;;;5.10;2.50;;;10.30;99.90;;;;;;4881067;29;20286;-95
2023/05/22 13:09:43;;;;;;;4.93;2.60;;;10.20;99.90;;;;;;4861947;29;20210;-95
2023/05/22 13:12:15;;;;;;;5.30;2.50;;;10.30;99.90;;;;;;4864010;29;20231;-95
2023/05/22 13:14:47;;;;;;;3.90;2.10;;;10.30;99.90;;;;;;4881519;29;20214;-95
2023/05/22 13:17:21;;;;;;;3.90;2.00;;;10.20;99.90;;;;;;4879486;29;20279;-94
2023/05/22 13:20:07;;;;;;;3.57;2.20;;;10.30;99.90;;;;;;4864865;29;20223;-94
2023/05/22 13:22:39;;;;;;;4.57;2.37;;;10.20;99.90;;;;;;4884419;29;20218;-96
2023/05/22 13:25:12;;;;;;;5.83;2.50;;;10.20;99.90;;;;;;4888833;29;20258;-94
2023/05/22 13:27:44;;;;;;;3.70;2.67;;;10.20;99.90;;;;;;4890297;29;20218;-96
2023/05/22 13:30:17;;;;;;;5.03;2.63;;;10.30;99.90;;;;;;4876514;29;20215;-96
2023/05/22 13:32:50;;;;;;;6.50;3.00;;;10.30;99.90;;;;;;4862357;29;20261;-96
2023/05/22 13:35:22;;;;;;;3.97;2.50;;;10.50;99.90;;;;;;4861706;29;20267;-95
2023/05/22 13:37:54;;;;;;;6.80;3.07;;;10.30;99.90;;;;;;4861756;29;20250;-96
2023/05/22 13:40:26;;;;;;;7.57;2.90;;;10.30;99.90;;;;;;4876741;29;20206;-94
2023/05/22 13:42:58;;;;;;;7.03;2.63;;;10.40;99.90;;;;;;4880980;29;20809;-94
2023/05/22 13:45:30;;;;;;;5.07;2.53;;;10.50;99.90;;;;;;4880275;29;20309;-95
2023/05/22 13:48:03;;;;;;;3.37;2.60;;;10.50;99.90;;;;;;4878236;29;20214;-95
2023/05/22 13:50:35;;;;;;;5.53;3.17;;;10.50;99.90;;;;;;4881258;29;20274;-95